createdAt,value
2019-01-10T00:02:10.541Z,2.90
2019-01-10T00:05:32.747Z,3.20
2019-01-10T00:08:55.205Z,2.33
2019-01-10T00:12:18.124Z,2.23
2019-01-10T00:15:40.711Z,2.20
2019-01-10T00:19:03.318Z,2.47
2019-01-10T00:22:25.951Z,2.50
2019-01-10T00:25:48.266Z,1.60
2019-01-10T00:29:10.925Z,2.03
2019-01-10T00:32:33.748Z,1.90
2019-01-10T00:35:56.257Z,2.10
2019-01-10T00:39:18.749Z,2.20
2019-01-10T00:42:49.312Z,1.80
2019-01-10T00:46:05.279Z,1.77
2019-01-10T00:49:27.628Z,1.90
2019-01-10T00:52:50.343Z,1.70
2019-01-10T00:56:12.866Z,1.53
2019-01-10T00:59:35.538Z,1.77
2019-01-10T01:02:57.989Z,1.33
2019-01-10T01:06:20.433Z,1.50
2019-01-10T01:09:42.774Z,1.50
2019-01-10T01:13:05.288Z,1.53
2019-01-10T01:16:27.356Z,1.73
2019-01-10T01:19:49.852Z,1.80
2019-01-10T01:23:12.313Z,1.93
2019-01-10T01:26:34.782Z,1.80
2019-01-10T01:29:57.406Z,1.80
2019-01-10T01:33:20.003Z,1.33
2019-01-10T01:36:42.197Z,1.57
2019-01-10T01:40:06.456Z,1.30
2019-01-10T01:43:28.935Z,1.30
2019-01-10T01:46:51.409Z,1.77
2019-01-10T01:50:16.565Z,2.17
2019-01-10T01:53:39.204Z,2.30
2019-01-10T01:57:01.778Z,1.90
2019-01-10T02:00:25.541Z,1.87
2019-01-10T02:03:47.809Z,2.50
2019-01-10T02:07:10.566Z,2.03
2019-01-10T02:10:32.953Z,1.90
2019-01-10T02:13:55.688Z,2.27
2019-01-10T02:17:17.900Z,2.00
2019-01-10T02:20:40.582Z,3.00
2019-01-10T02:24:03.112Z,2.30
2019-01-10T02:27:25.788Z,2.60
2019-01-10T02:30:48.005Z,2.30
2019-01-10T02:34:10.681Z,1.80
2019-01-10T02:37:33.417Z,2.33
2019-01-10T02:40:55.896Z,2.40
2019-01-10T02:44:18.349Z,2.40
2019-01-10T02:47:40.806Z,2.70
2019-01-10T02:51:02.965Z,2.80
2019-01-10T02:54:25.346Z,2.60
2019-01-10T02:57:47.725Z,2.57
2019-01-10T03:01:10.323Z,2.80
2019-01-10T03:04:32.938Z,3.10
2019-01-10T03:07:55.126Z,2.40
2019-01-10T03:11:17.162Z,2.33
2019-01-10T03:14:39.271Z,2.07
2019-01-10T03:18:01.538Z,1.90
2019-01-10T03:21:24.283Z,2.20
2019-01-10T03:24:46.954Z,2.17
2019-01-10T03:28:09.390Z,1.73
2019-01-10T03:31:32.045Z,2.03
2019-01-10T03:34:54.138Z,1.33
2019-01-10T03:38:16.687Z,2.10
2019-01-10T03:41:39.196Z,2.10
2019-01-10T03:45:01.719Z,1.93
2019-01-10T03:48:24.408Z,1.40
2019-01-10T03:51:47.188Z,1.87
2019-01-10T03:55:10.146Z,1.60
2019-01-10T03:58:32.489Z,1.47
2019-01-10T04:01:54.943Z,1.57
2019-01-10T04:05:17.076Z,1.60
2019-01-10T04:08:39.665Z,0.97
2019-01-10T04:12:03.437Z,1.40
2019-01-10T04:15:26.091Z,1.40
2019-01-10T04:18:48.356Z,1.50
2019-01-10T04:22:11.064Z,1.67
2019-01-10T04:25:33.220Z,1.90
2019-01-10T04:28:55.982Z,1.60
2019-01-10T04:32:18.376Z,1.60
2019-01-10T04:35:40.769Z,1.90
2019-01-10T04:39:04.673Z,1.33
2019-01-10T04:42:27.726Z,1.60
2019-01-10T04:45:50.382Z,1.30
2019-01-10T04:49:12.931Z,1.70
2019-01-10T04:52:35.587Z,2.33
2019-01-10T04:55:57.998Z,2.00
2019-01-10T04:59:20.386Z,2.40
2019-01-10T05:02:42.872Z,1.97
2019-01-10T05:06:05.718Z,2.20
2019-01-10T05:09:28.119Z,2.40
2019-01-10T05:12:50.560Z,2.30
2019-01-10T05:16:13.078Z,2.27
2019-01-10T05:19:35.400Z,2.70
2019-01-10T05:22:57.555Z,2.47
2019-01-10T05:26:19.779Z,2.10
2019-01-10T05:29:42.423Z,2.07
2019-01-10T05:33:05.033Z,3.23
2019-01-10T05:36:27.172Z,2.87
2019-01-10T05:39:49.752Z,2.33
2019-01-10T05:43:12.052Z,2.47
2019-01-10T05:46:34.558Z,3.00
2019-01-10T05:49:57.140Z,2.53
2019-01-10T05:53:19.183Z,2.80
2019-01-10T05:56:41.790Z,2.00
2019-01-10T06:00:05.326Z,2.20
2019-01-10T06:03:27.459Z,2.00
2019-01-10T06:06:49.830Z,2.67
2019-01-10T06:10:16.044Z,2.90
2019-01-10T06:13:38.643Z,2.70
2019-01-10T06:17:01.185Z,2.30
2019-01-10T06:20:24.253Z,3.00
2019-01-10T06:23:46.922Z,2.70
2019-01-10T06:27:09.638Z,3.17
2019-01-10T06:30:24.305Z,3.43
2019-01-10T06:33:46.934Z,2.80
2019-01-10T06:37:09.692Z,2.93
2019-01-10T06:40:32.162Z,2.97
2019-01-10T06:43:54.756Z,2.80
2019-01-10T06:47:17.470Z,3.10
2019-01-10T06:50:39.980Z,2.70
2019-01-10T06:54:02.729Z,4.07
2019-01-10T06:57:25.467Z,3.93
2019-01-10T07:00:47.812Z,3.17
2019-01-10T07:04:10.394Z,3.80
2019-01-10T07:07:32.612Z,3.10
2019-01-10T07:10:55.063Z,2.30
2019-01-10T07:14:17.273Z,3.23
2019-01-10T07:17:40.034Z,2.60
2019-01-10T07:21:02.640Z,2.50
2019-01-10T07:24:26.510Z,2.40
2019-01-10T07:27:49.344Z,1.70
2019-01-10T07:31:31.875Z,2.53
2019-01-10T07:35:02.204Z,3.20
2019-01-10T07:38:24.568Z,2.60
2019-01-10T07:41:47.247Z,3.77
2019-01-10T07:45:12.766Z,2.80
2019-01-10T07:48:35.168Z,3.67
2019-01-10T07:51:57.873Z,2.80
2019-01-10T07:55:20.296Z,2.87
2019-01-10T07:58:42.929Z,2.60
2019-01-10T08:02:05.436Z,3.13
2019-01-10T08:05:27.890Z,2.33
2019-01-10T08:08:50.221Z,2.50
2019-01-10T08:12:12.628Z,2.77
2019-01-10T08:15:34.791Z,2.20
2019-01-10T08:18:57.268Z,2.83
2019-01-10T08:22:27.770Z,3.47
2019-01-10T08:25:44.421Z,3.50
2019-01-10T08:29:07.087Z,2.40
2019-01-10T08:32:29.165Z,2.30
2019-01-10T08:35:51.807Z,2.30
2019-01-10T08:39:14.078Z,1.77
2019-01-10T08:42:36.705Z,1.83
2019-01-10T08:45:58.954Z,2.57
2019-01-10T08:49:21.613Z,1.63
2019-01-10T08:52:44.139Z,2.43
2019-01-10T08:56:07.445Z,1.73
2019-01-10T08:59:30.098Z,3.30
2019-01-10T09:02:52.728Z,2.43
2019-01-10T09:06:14.822Z,2.40
2019-01-10T09:09:37.363Z,3.60
2019-01-10T09:13:00.818Z,2.60
2019-01-10T09:16:23.650Z,1.93
2019-01-10T09:19:46.401Z,2.20
2019-01-10T09:23:08.580Z,1.30
2019-01-10T09:26:37.778Z,2.50
2019-01-10T09:29:55.425Z,2.93
2019-01-10T09:33:18.183Z,2.10
2019-01-10T09:36:40.651Z,2.43
2019-01-10T09:40:03.013Z,2.63
2019-01-10T09:43:25.388Z,2.50
2019-01-10T09:46:48.006Z,2.20
2019-01-10T09:50:12.635Z,2.53
2019-01-10T09:53:35.236Z,2.70
2019-01-10T09:56:57.605Z,2.90
2019-01-10T10:00:28.993Z,2.03
2019-01-10T10:03:51.466Z,1.67
2019-01-10T10:07:13.996Z,2.10
2019-01-10T10:10:36.752Z,1.70
2019-01-10T10:13:58.974Z,2.23
2019-01-10T10:17:21.533Z,2.27
2019-01-10T10:20:44.224Z,2.00
2019-01-10T10:24:06.628Z,2.17
2019-01-10T10:27:29.257Z,2.23
2019-01-10T10:30:51.720Z,2.13
2019-01-10T10:34:14.203Z,2.27
2019-01-10T10:37:36.678Z,2.23
2019-01-10T10:40:59.126Z,2.57
2019-01-10T10:44:21.805Z,1.37
2019-01-10T10:47:44.250Z,2.30
2019-01-10T10:51:06.787Z,1.67
2019-01-10T10:54:29.333Z,2.50
2019-01-10T10:57:51.798Z,2.50
2019-01-10T11:01:14.504Z,2.50
2019-01-10T11:04:36.599Z,2.10
2019-01-10T11:07:59.296Z,2.20
2019-01-10T11:11:22.129Z,2.80
2019-01-10T11:14:48.219Z,2.70
2019-01-10T11:18:09.105Z,3.20
2019-01-10T11:21:31.536Z,2.30
2019-01-10T11:24:54.448Z,2.50
2019-01-10T11:28:17.041Z,3.07
2019-01-10T11:31:39.543Z,2.47
2019-01-10T11:35:01.887Z,1.73
2019-01-10T11:38:24.313Z,2.00
2019-01-10T11:41:46.460Z,3.90
2019-01-10T11:45:11.681Z,2.30
2019-01-10T11:48:34.122Z,2.20
2019-01-10T11:51:56.712Z,2.30
2019-01-10T11:55:18.929Z,1.80
2019-01-10T11:58:41.633Z,2.27
2019-01-10T12:02:04.240Z,2.00
2019-01-10T12:05:26.501Z,1.40
2019-01-10T12:08:49.036Z,1.87
2019-01-10T12:12:11.769Z,2.07
2019-01-10T12:15:34.413Z,3.13
2019-01-10T12:18:59.378Z,1.87
2019-01-10T12:22:21.761Z,1.20
2019-01-10T12:25:44.316Z,5.47
2019-01-10T12:29:07.329Z,5.00
2019-01-10T12:32:30.210Z,2.07
2019-01-10T12:35:52.676Z,3.97
2019-01-10T12:39:15.602Z,2.50
2019-01-10T12:42:38.209Z,2.20
2019-01-10T12:46:00.798Z,2.30
2019-01-10T12:49:23.560Z,1.80
2019-01-10T12:52:45.784Z,2.47
2019-01-10T12:56:08.418Z,2.70
2019-01-10T12:59:30.857Z,3.03
2019-01-10T13:02:53.858Z,3.57
2019-01-10T13:06:15.942Z,1.93
2019-01-10T13:09:38.433Z,3.23
2019-01-10T13:13:00.901Z,2.40
2019-01-10T13:16:23.530Z,2.57
2019-01-10T13:19:45.555Z,2.30
2019-01-10T13:23:08.158Z,3.77
2019-01-10T13:26:30.797Z,3.70
2019-01-10T13:29:53.365Z,6.03
2019-01-10T13:33:16.009Z,1.67
2019-01-10T13:36:38.360Z,2.50
2019-01-10T13:40:00.830Z,2.60
2019-01-10T13:43:23.122Z,2.37
2019-01-10T13:46:45.266Z,2.77
2019-01-10T13:50:11.433Z,2.73
2019-01-10T13:53:33.980Z,3.30
2019-01-10T13:56:56.478Z,1.97
2019-01-10T14:00:27.849Z,2.20
2019-01-10T14:03:50.257Z,2.20
2019-01-10T14:07:12.509Z,4.47
2019-01-10T14:10:34.978Z,2.60
2019-01-10T14:13:57.591Z,2.90
2019-01-10T14:17:19.999Z,3.70
2019-01-10T14:20:42.453Z,3.30
2019-01-10T14:24:05.244Z,2.30
2019-01-10T14:27:27.977Z,2.23
2019-01-10T14:30:50.736Z,2.50
2019-01-10T14:34:14.262Z,1.60
2019-01-10T14:37:36.689Z,2.77
2019-01-10T14:40:59.606Z,4.70
2019-01-10T14:44:22.264Z,3.63
2019-01-10T14:47:45.236Z,4.30
2019-01-10T14:51:08.133Z,4.33
2019-01-10T14:54:30.622Z,5.57
2019-01-10T14:57:53.158Z,5.47
2019-01-10T15:01:15.829Z,4.37
2019-01-10T15:04:38.358Z,4.87
2019-01-10T15:08:00.930Z,4.33
2019-01-10T15:11:23.418Z,4.47
2019-01-10T15:14:45.889Z,4.40
2019-01-10T15:18:08.065Z,4.07
2019-01-10T15:21:30.833Z,4.70
2019-01-10T15:24:53.173Z,6.87
2019-01-10T15:28:15.399Z,4.50
2019-01-10T15:31:38.272Z,3.87
2019-01-10T15:35:00.778Z,2.23
2019-01-10T15:38:23.364Z,3.00
2019-01-10T15:41:45.833Z,2.63
2019-01-10T15:45:08.928Z,2.60
2019-01-10T15:48:31.551Z,2.53
2019-01-10T15:51:53.902Z,1.97
2019-01-10T15:55:17.290Z,1.80
2019-01-10T15:58:39.691Z,1.50
2019-01-10T16:02:02.393Z,1.70
2019-01-10T16:05:25.215Z,1.80
2019-01-10T16:08:47.743Z,5.57
2019-01-10T16:12:10.234Z,4.83
2019-01-10T16:15:32.810Z,2.40
2019-01-10T16:18:55.543Z,8.40
2019-01-10T16:22:17.718Z,8.77
2019-01-10T16:25:40.368Z,2.80
2019-01-10T16:29:02.834Z,2.47
2019-01-10T16:32:25.011Z,2.23
2019-01-10T16:35:47.410Z,4.53
2019-01-10T16:39:09.892Z,7.30
2019-01-10T16:42:32.268Z,4.43
2019-01-10T16:45:54.859Z,2.40
2019-01-10T16:49:17.387Z,3.00
2019-01-10T16:52:39.509Z,3.10
2019-01-10T16:56:02.266Z,2.20
2019-01-10T16:59:24.903Z,3.55
2019-01-10T17:02:47.423Z,2.80
2019-01-10T17:06:10.130Z,3.85
2019-01-10T17:09:33.045Z,3.33
2019-01-10T17:14:16.014Z,3.43
2019-01-10T17:17:38.702Z,4.53
2019-01-10T17:21:01.514Z,5.83
2019-01-10T17:24:23.991Z,3.93
2019-01-10T17:27:46.773Z,3.40
2019-01-10T17:31:09.419Z,4.00
2019-01-10T17:34:32.106Z,3.87
2019-01-10T17:37:54.257Z,4.00
2019-01-10T17:41:17.123Z,3.40
2019-01-10T17:44:39.542Z,4.77
2019-01-10T17:48:02.166Z,5.47
2019-01-10T17:51:24.932Z,5.67
2019-01-10T17:54:47.362Z,5.23
2019-01-10T17:58:09.826Z,4.57
2019-01-10T18:01:32.201Z,7.60
2019-01-10T18:04:54.654Z,7.37
2019-01-10T18:08:17.075Z,7.23
2019-01-10T18:11:39.620Z,7.73
2019-01-10T18:15:02.287Z,13.07
2019-01-10T18:18:24.969Z,13.93
2019-01-10T18:21:47.766Z,10.17
2019-01-10T18:25:10.660Z,9.40
2019-01-10T18:28:33.550Z,8.77
2019-01-10T18:31:55.887Z,7.43
2019-01-10T18:35:18.422Z,7.20
2019-01-10T18:38:40.810Z,9.83
2019-01-10T18:42:03.246Z,8.40
2019-01-10T18:45:28.690Z,5.73
2019-01-10T18:48:51.321Z,5.50
2019-01-10T18:52:13.840Z,7.93
2019-01-10T18:55:36.289Z,7.00
2019-01-10T18:58:58.489Z,6.97
2019-01-10T19:02:21.166Z,5.30
2019-01-10T19:05:43.586Z,8.13
2019-01-10T19:09:08.094Z,7.17
2019-01-10T19:12:30.174Z,7.07
2019-01-10T19:15:53.034Z,5.97
2019-01-10T19:19:15.446Z,5.50
2019-01-10T19:22:37.931Z,6.47
2019-01-10T19:26:00.817Z,3.47
2019-01-10T19:29:23.006Z,3.63
2019-01-10T19:32:45.680Z,3.33
2019-01-10T19:36:08.124Z,3.47
2019-01-10T19:39:30.169Z,3.90
2019-01-10T19:42:52.664Z,6.73
2019-01-10T19:46:15.155Z,6.50
2019-01-10T19:49:37.603Z,5.60
2019-01-10T19:53:00.310Z,3.97
2019-01-10T19:56:22.452Z,4.10
2019-01-10T19:59:44.914Z,7.80
2019-01-10T20:03:07.385Z,3.70
2019-01-10T20:06:29.922Z,5.17
2019-01-10T20:09:52.520Z,5.93
2019-01-10T20:13:14.996Z,5.07
2019-01-10T20:16:37.612Z,5.43
2019-01-10T20:20:00.363Z,4.50
2019-01-10T20:23:29.017Z,5.00
2019-01-10T20:26:52.092Z,5.50
2019-01-10T20:30:16.555Z,3.70
2019-01-10T20:33:39.049Z,3.50
2019-01-10T20:37:02.214Z,4.13
2019-01-10T20:40:25.013Z,3.20
2019-01-10T20:43:47.644Z,5.97
2019-01-10T20:47:10.370Z,4.77
2019-01-10T20:50:32.530Z,4.73
2019-01-10T20:53:54.680Z,6.10
2019-01-10T20:57:16.819Z,4.33
2019-01-10T21:00:39.270Z,7.30
2019-01-10T21:04:01.777Z,4.10
2019-01-10T21:07:24.131Z,5.27
2019-01-10T21:10:47.094Z,7.30
2019-01-10T21:14:09.814Z,5.80
2019-01-10T21:17:32.461Z,3.77
2019-01-10T21:20:54.866Z,5.60
2019-01-10T21:24:17.687Z,4.67
2019-01-10T21:27:40.836Z,2.93
2019-01-10T21:31:03.654Z,3.40
2019-01-10T21:34:26.035Z,3.63
2019-01-10T21:37:48.791Z,5.07
2019-01-10T21:41:11.968Z,3.67
2019-01-10T21:44:34.455Z,3.77
2019-01-10T21:47:57.080Z,3.30
2019-01-10T21:51:19.791Z,2.90
2019-01-10T21:54:42.339Z,6.13
2019-01-10T21:58:05.363Z,3.63
2019-01-10T22:01:28.074Z,2.80
2019-01-10T22:04:50.122Z,2.73
2019-01-10T22:08:12.765Z,3.33
2019-01-10T22:11:35.202Z,3.00
2019-01-10T22:14:57.834Z,3.30
2019-01-10T22:18:20.602Z,3.73
2019-01-10T22:21:43.502Z,2.60
2019-01-10T22:25:06.712Z,2.93
2019-01-10T22:28:29.348Z,4.80
2019-01-10T22:31:51.762Z,3.43
2019-01-10T22:35:16.271Z,3.17
2019-01-10T22:38:38.614Z,6.47
2019-01-10T22:42:01.881Z,3.70
2019-01-10T22:45:24.625Z,5.63
2019-01-10T22:48:47.941Z,3.50
2019-01-10T22:52:10.634Z,3.93
2019-01-10T22:55:33.260Z,3.80
2019-01-10T22:58:55.938Z,3.30
2019-01-10T23:02:18.661Z,3.30
2019-01-10T23:05:44.582Z,5.10
2019-01-10T23:09:09.485Z,6.80
2019-01-10T23:12:35.931Z,4.63
2019-01-10T23:15:58.846Z,3.60
2019-01-10T23:19:21.571Z,4.23
2019-01-10T23:22:43.691Z,3.93
2019-01-10T23:26:06.137Z,3.73
2019-01-10T23:29:32.721Z,4.20
2019-01-10T23:32:59.798Z,5.33
2019-01-10T23:36:22.266Z,4.27
2019-01-10T23:39:44.829Z,3.60
2019-01-10T23:43:07.820Z,3.80
2019-01-10T23:46:30.383Z,4.53
2019-01-10T23:49:53.252Z,4.73
2019-01-10T23:53:16.106Z,4.77
2019-01-10T23:56:39.012Z,4.33
